createdAt,value
2022-10-29T00:00:56.275Z,1016.03
2022-10-29T00:01:56.343Z,1016.01
2022-10-29T00:02:56.327Z,1016.01
2022-10-29T00:03:56.244Z,1016.00
2022-10-29T00:04:56.221Z,1016.01
2022-10-29T00:05:56.206Z,1015.96
2022-10-29T00:06:56.218Z,1015.94
2022-10-29T00:07:56.645Z,1015.93
2022-10-29T00:08:56.177Z,1015.88
2022-10-29T00:09:56.160Z,1015.90
2022-10-29T00:10:56.163Z,1015.92
2022-10-29T00:11:56.151Z,1015.92
2022-10-29T00:12:56.153Z,1015.92
2022-10-29T00:13:56.120Z,1015.92
2022-10-29T00:14:56.105Z,1015.97
2022-10-29T00:15:56.110Z,1015.96
2022-10-29T00:16:56.099Z,1016.00
2022-10-29T00:17:56.519Z,1015.98
2022-10-29T00:18:56.068Z,1015.97
2022-10-29T00:19:56.080Z,1015.98
2022-10-29T00:20:56.043Z,1015.99
2022-10-29T00:21:56.044Z,1015.98
2022-10-29T00:22:56.302Z,1015.98
2022-10-29T00:23:55.999Z,1016.00
2022-10-29T00:24:55.997Z,1015.98
2022-10-29T00:25:55.977Z,1015.96
2022-10-29T00:26:55.983Z,1015.96
2022-10-29T00:27:55.956Z,1015.95
2022-10-29T00:28:55.977Z,1015.94
2022-10-29T00:29:55.935Z,1015.95
2022-10-29T00:30:55.929Z,1015.98
2022-10-29T00:31:56.021Z,1015.97
2022-10-29T00:32:56.157Z,1015.99
2022-10-29T00:33:55.925Z,1016.01
2022-10-29T00:34:55.878Z,1016.01
2022-10-29T00:35:55.877Z,1015.98
2022-10-29T00:36:55.878Z,1016.00
2022-10-29T00:37:56.272Z,1015.98
2022-10-29T00:38:55.839Z,1016.01
2022-10-29T00:39:55.819Z,1016.03
2022-10-29T00:40:55.818Z,1016.00
2022-10-29T00:41:55.815Z,1015.98
2022-10-29T00:42:55.796Z,1015.99
2022-10-29T00:43:55.780Z,1016.06
2022-10-29T00:44:55.789Z,1016.05
2022-10-29T00:45:55.804Z,1016.00
2022-10-29T00:46:55.766Z,1016.04
2022-10-29T00:47:56.002Z,1016.02
2022-10-29T00:48:55.726Z,1016.06
2022-10-29T00:49:55.725Z,1016.05
2022-10-29T00:50:55.707Z,1016.04
2022-10-29T00:51:55.699Z,1016.03
2022-10-29T00:52:55.706Z,1016.04
2022-10-29T00:53:55.665Z,1016.02
2022-10-29T00:54:55.656Z,1016.04
2022-10-29T00:55:55.651Z,1016.01
2022-10-29T00:56:55.634Z,1016.00
2022-10-29T00:57:55.832Z,1016.03
2022-10-29T00:58:55.613Z,1016.02
2022-10-29T00:59:55.614Z,1016.02
2022-10-29T01:00:55.607Z,1016.03
2022-10-29T01:01:55.736Z,1016.06
2022-10-29T01:02:55.947Z,1016.03
2022-10-29T01:03:55.568Z,1016.04
2022-10-29T01:04:55.541Z,1016.00
2022-10-29T01:05:55.529Z,1016.01
2022-10-29T01:06:55.529Z,1016.04
2022-10-29T01:07:55.521Z,1016.00
2022-10-29T01:08:55.502Z,1015.99
2022-10-29T01:09:55.490Z,1015.96
2022-10-29T01:10:55.473Z,1015.96
2022-10-29T01:11:55.461Z,1015.96
2022-10-29T01:12:55.903Z,1015.94
2022-10-29T01:13:55.444Z,1015.97
2022-10-29T01:14:55.425Z,1015.92
2022-10-29T01:15:55.425Z,1015.90
2022-10-29T01:16:55.435Z,1015.89
2022-10-29T01:17:55.832Z,1015.88
2022-10-29T01:18:55.512Z,1015.91
2022-10-29T01:19:55.370Z,1015.95
2022-10-29T01:20:55.365Z,1015.94
2022-10-29T01:21:55.354Z,1015.90
2022-10-29T01:22:55.537Z,1015.90
2022-10-29T01:23:55.324Z,1015.91
2022-10-29T01:24:55.314Z,1015.89
2022-10-29T01:25:55.308Z,1015.91
2022-10-29T01:26:55.292Z,1015.91
2022-10-29T01:27:55.654Z,1015.91
2022-10-29T01:28:55.277Z,1015.90
2022-10-29T01:29:55.258Z,1015.88
2022-10-29T01:30:55.252Z,1015.91
2022-10-29T01:31:55.241Z,1015.89
2022-10-29T01:32:55.583Z,1015.92
2022-10-29T01:33:55.217Z,1015.92
2022-10-29T01:34:55.201Z,1015.93
2022-10-29T01:35:55.195Z,1015.92
2022-10-29T01:36:55.186Z,1015.91
2022-10-29T01:37:55.213Z,1015.93
2022-10-29T01:38:55.317Z,1015.94
2022-10-29T01:39:55.285Z,1015.94
2022-10-29T01:40:55.143Z,1015.98
2022-10-29T01:41:55.136Z,1015.94
2022-10-29T01:42:55.500Z,1015.98
2022-10-29T01:43:55.121Z,1015.99
2022-10-29T01:44:55.097Z,1016.03
2022-10-29T01:45:55.085Z,1016.00
2022-10-29T01:46:55.074Z,1015.99
2022-10-29T01:47:55.335Z,1015.95
2022-10-29T01:48:55.090Z,1015.92
2022-10-29T01:49:55.032Z,1015.91
2022-10-29T01:50:55.030Z,1015.89
2022-10-29T01:51:55.018Z,1015.86
2022-10-29T01:52:55.005Z,1015.85
2022-10-29T01:53:55.000Z,1015.84
2022-10-29T01:54:54.984Z,1015.83
2022-10-29T01:55:54.986Z,1015.76
2022-10-29T01:56:54.962Z,1015.74
2022-10-29T01:57:55.359Z,1015.73
2022-10-29T01:58:54.969Z,1015.75
2022-10-29T01:59:56.184Z,1015.71
2022-10-29T02:00:54.966Z,1015.73
2022-10-29T02:01:54.935Z,1015.66
2022-10-29T02:02:54.943Z,1015.65
2022-10-29T02:03:54.901Z,1015.62
2022-10-29T02:04:54.886Z,1015.56
2022-10-29T02:05:54.857Z,1015.57
2022-10-29T02:06:54.842Z,1015.56
2022-10-29T02:07:54.849Z,1015.52
2022-10-29T02:08:54.834Z,1015.52
2022-10-29T02:09:54.819Z,1015.50
2022-10-29T02:10:54.808Z,1015.52
2022-10-29T02:11:54.791Z,1015.52
2022-10-29T02:12:55.199Z,1015.51
2022-10-29T02:13:54.795Z,1015.49
2022-10-29T02:14:54.750Z,1015.53
2022-10-29T02:15:54.746Z,1015.49
2022-10-29T02:16:54.733Z,1015.47
2022-10-29T02:17:54.995Z,1015.49
2022-10-29T02:18:54.726Z,1015.48
2022-10-29T02:19:54.701Z,1015.42
2022-10-29T02:20:54.703Z,1015.45
2022-10-29T02:21:54.681Z,1015.43
2022-10-29T02:22:54.661Z,1015.40
2022-10-29T02:23:54.675Z,1015.38
2022-10-29T02:24:54.649Z,1015.36
2022-10-29T02:25:54.798Z,1015.36
2022-10-29T02:26:54.620Z,1015.36
2022-10-29T02:27:54.879Z,1015.35
2022-10-29T02:28:54.610Z,1015.41
2022-10-29T02:29:54.581Z,1015.42
2022-10-29T02:30:54.578Z,1015.40
2022-10-29T02:31:54.560Z,1015.43
2022-10-29T02:32:54.895Z,1015.45
2022-10-29T02:33:54.556Z,1015.46
2022-10-29T02:34:54.539Z,1015.49
2022-10-29T02:35:54.520Z,1015.51
2022-10-29T02:36:54.532Z,1015.59
2022-10-29T02:37:54.492Z,1015.57
2022-10-29T02:38:54.484Z,1015.58
2022-10-29T02:39:54.496Z,1015.61
2022-10-29T02:40:54.466Z,1015.59
2022-10-29T02:41:54.451Z,1015.56
2022-10-29T02:42:54.804Z,1015.49
2022-10-29T02:43:54.428Z,1015.49
2022-10-29T02:44:54.445Z,1015.47
2022-10-29T02:45:54.403Z,1015.47
2022-10-29T02:46:54.389Z,1015.48
2022-10-29T02:47:54.720Z,1015.46
2022-10-29T02:48:54.379Z,1015.46
2022-10-29T02:49:54.366Z,1015.49
2022-10-29T02:50:54.352Z,1015.47
2022-10-29T02:51:54.331Z,1015.50
2022-10-29T02:52:54.340Z,1015.50
2022-10-29T02:53:54.315Z,1015.46
2022-10-29T02:54:54.309Z,1015.44
2022-10-29T02:55:54.287Z,1015.39
2022-10-29T02:56:54.278Z,1015.41
2022-10-29T02:57:54.507Z,1015.37
2022-10-29T02:58:54.248Z,1015.37
2022-10-29T02:59:54.250Z,1015.39
2022-10-29T03:00:54.225Z,1015.41
2022-10-29T03:01:54.375Z,1015.40
2022-10-29T03:02:54.594Z,1015.36
2022-10-29T03:03:54.194Z,1015.36
2022-10-29T03:04:54.192Z,1015.33
2022-10-29T03:05:54.165Z,1015.37
2022-10-29T03:06:54.155Z,1015.36
2022-10-29T03:07:54.142Z,1015.34
2022-10-29T03:08:54.161Z,1015.36
2022-10-29T03:09:54.147Z,1015.36
2022-10-29T03:10:54.148Z,1015.35
2022-10-29T03:11:54.096Z,1015.34
2022-10-29T03:12:54.456Z,1015.33
2022-10-29T03:13:54.084Z,1015.27
2022-10-29T03:14:54.119Z,1015.26
2022-10-29T03:15:54.059Z,1015.25
2022-10-29T03:16:54.044Z,1015.25
2022-10-29T03:17:54.368Z,1015.28
2022-10-29T03:18:54.014Z,1015.27
2022-10-29T03:19:54.016Z,1015.27
2022-10-29T03:20:54.008Z,1015.26
2022-10-29T03:21:53.995Z,1015.30
2022-10-29T03:22:53.976Z,1015.31
2022-10-29T03:23:53.955Z,1015.24
2022-10-29T03:24:53.973Z,1015.21
2022-10-29T03:25:55.864Z,1015.16
2022-10-29T03:26:53.929Z,1015.19
2022-10-29T03:27:54.042Z,1015.12
2022-10-29T03:28:53.901Z,1015.09
2022-10-29T03:29:53.893Z,1015.09
2022-10-29T03:30:53.902Z,1015.06
2022-10-29T03:31:53.865Z,1015.05
2022-10-29T03:32:54.254Z,1015.02
2022-10-29T03:33:53.849Z,1015.00
2022-10-29T03:34:57.431Z,1014.97
2022-10-29T03:35:54.913Z,1014.93
2022-10-29T03:36:53.824Z,1014.93
2022-10-29T03:37:53.801Z,1014.93
2022-10-29T03:38:53.814Z,1014.93
2022-10-29T03:39:53.771Z,1014.92
2022-10-29T03:40:53.807Z,1014.90
2022-10-29T03:41:53.755Z,1014.95
2022-10-29T03:42:54.093Z,1015.00
2022-10-29T03:43:53.734Z,1015.01
2022-10-29T03:44:53.714Z,1015.03
2022-10-29T03:45:53.742Z,1015.02
2022-10-29T03:46:53.689Z,1015.01
2022-10-29T03:47:53.993Z,1014.97
2022-10-29T03:48:53.674Z,1014.97
2022-10-29T03:49:53.656Z,1015.03
2022-10-29T03:50:53.680Z,1015.02
2022-10-29T03:51:53.650Z,1015.02
2022-10-29T03:52:53.628Z,1015.03
2022-10-29T03:53:53.617Z,1015.01
2022-10-29T03:54:53.619Z,1015.02
2022-10-29T03:55:53.584Z,1014.97
2022-10-29T03:56:53.631Z,1014.95
2022-10-29T03:57:53.998Z,1014.97
2022-10-29T03:58:53.552Z,1014.96
2022-10-29T03:59:53.548Z,1015.00
2022-10-29T04:00:53.532Z,1015.00
2022-10-29T04:01:53.661Z,1015.05
2022-10-29T04:02:53.857Z,1015.06
2022-10-29T04:03:53.501Z,1015.04
2022-10-29T04:04:53.489Z,1014.99
2022-10-29T04:05:53.475Z,1014.98
2022-10-29T04:06:53.484Z,1014.96
2022-10-29T04:07:53.453Z,1014.93
2022-10-29T04:08:53.443Z,1014.93
2022-10-29T04:09:53.433Z,1014.97
2022-10-29T04:10:53.421Z,1015.05
2022-10-29T04:11:53.430Z,1015.04
2022-10-29T04:12:53.917Z,1015.02
2022-10-29T04:13:53.441Z,1015.00
2022-10-29T04:14:53.435Z,1014.97
2022-10-29T04:15:53.366Z,1014.96
2022-10-29T04:16:53.373Z,1014.99
2022-10-29T04:17:53.517Z,1015.02
2022-10-29T04:18:53.329Z,1015.02
2022-10-29T04:19:53.318Z,1015.04
2022-10-29T04:27:07.932Z,1015.05
2022-10-29T04:27:08.272Z,1015.08
2022-10-29T04:28:54.240Z,1014.98
2022-10-29T04:29:53.207Z,1014.98
2022-10-29T04:30:53.209Z,1014.98
2022-10-29T04:31:53.191Z,1014.97
2022-10-29T04:32:53.682Z,1014.95
2022-10-29T04:33:53.160Z,1014.92
2022-10-29T04:34:53.139Z,1014.81
2022-10-29T04:35:53.137Z,1014.78
2022-10-29T04:36:53.135Z,1014.73
2022-10-29T04:37:53.108Z,1014.67
2022-10-29T04:38:53.094Z,1014.65
2022-10-29T04:39:53.103Z,1014.61
2022-10-29T04:40:53.074Z,1014.51
2022-10-29T04:41:53.080Z,1014.40
2022-10-29T04:42:53.312Z,1014.30
2022-10-29T04:43:53.047Z,1014.15
2022-10-29T04:44:53.048Z,1014.06
2022-10-29T04:45:53.019Z,1013.98
2022-10-29T04:46:53.025Z,1013.96
2022-10-29T04:47:53.413Z,1014.10
2022-10-29T04:48:53.058Z,1014.33
2022-10-29T04:49:52.974Z,1014.52
2022-10-29T04:50:52.966Z,1014.72
2022-10-29T04:51:52.974Z,1014.81
2022-10-29T04:52:52.983Z,1014.87
2022-10-29T04:53:52.926Z,1014.91
2022-10-29T04:54:52.917Z,1014.87
2022-10-29T04:55:52.905Z,1014.83
2022-10-29T04:56:52.913Z,1014.80
2022-10-29T04:57:53.216Z,1014.70
2022-10-29T04:58:52.918Z,1014.64
2022-10-29T04:59:52.859Z,1014.58
2022-10-29T05:00:52.918Z,1014.59
2022-10-29T05:01:52.857Z,1014.59
2022-10-29T05:02:53.289Z,1014.55
2022-10-29T05:03:55.668Z,1014.49
2022-10-29T05:04:53.806Z,1014.51
2022-10-29T05:05:52.790Z,1014.50
2022-10-29T05:06:52.791Z,1014.54
2022-10-29T05:07:52.774Z,1014.47
2022-10-29T05:08:52.757Z,1014.46
2022-10-29T05:09:52.753Z,1014.42
2022-10-29T05:10:52.750Z,1014.39
2022-10-29T05:11:52.740Z,1014.36
2022-10-29T05:12:52.888Z,1014.29
2022-10-29T05:13:52.707Z,1014.33
2022-10-29T05:14:52.738Z,1014.24
2022-10-29T05:15:53.488Z,1014.23
2022-10-29T05:16:52.890Z,1014.28
2022-10-29T05:17:52.756Z,1014.33
2022-10-29T05:18:52.645Z,1014.35
2022-10-29T05:19:52.638Z,1014.33
2022-10-29T05:20:52.620Z,1014.27
2022-10-29T05:21:52.825Z,1014.29
2022-10-29T05:22:52.605Z,1014.28
2022-10-29T05:23:52.597Z,1014.29
2022-10-29T05:24:52.587Z,1014.28
2022-10-29T05:25:52.846Z,1014.29
2022-10-29T05:26:52.568Z,1014.30
2022-10-29T05:27:52.826Z,1014.33
2022-10-29T05:28:52.530Z,1014.34
2022-10-29T05:29:52.522Z,1014.32
2022-10-29T05:30:52.548Z,1014.32
2022-10-29T05:31:52.517Z,1014.34
2022-10-29T05:32:52.781Z,1014.36
2022-10-29T05:33:55.497Z,1014.35
2022-10-29T05:34:52.468Z,1014.36
2022-10-29T05:35:52.465Z,1014.38
2022-10-29T05:36:52.453Z,1014.45
2022-10-29T05:37:52.437Z,1014.43
2022-10-29T05:38:52.417Z,1014.48
2022-10-29T05:39:52.417Z,1014.46
2022-10-29T05:40:52.393Z,1014.46
2022-10-29T05:41:52.412Z,1014.46
2022-10-29T05:42:52.373Z,1014.46
2022-10-29T05:43:52.361Z,1014.42
2022-10-29T05:44:52.348Z,1014.41
2022-10-29T05:45:52.336Z,1014.45
2022-10-29T05:46:52.341Z,1014.48
2022-10-29T05:47:52.320Z,1014.45
2022-10-29T05:48:52.322Z,1014.46
2022-10-29T05:49:52.297Z,1014.47
2022-10-29T05:50:52.294Z,1014.53
2022-10-29T05:51:52.299Z,1014.52
2022-10-29T05:52:52.264Z,1014.62
2022-10-29T05:53:52.256Z,1014.58
2022-10-29T05:54:52.238Z,1014.52
2022-10-29T05:55:52.232Z,1014.52
2022-10-29T05:56:52.225Z,1014.52
2022-10-29T05:57:52.201Z,1014.48
2022-10-29T05:58:52.189Z,1014.48
2022-10-29T05:59:52.187Z,1014.46
2022-10-29T06:00:52.182Z,1014.48
2022-10-29T06:01:52.374Z,1014.46
2022-10-29T06:02:52.243Z,1014.52
2022-10-29T06:04:52.152Z,1014.48
2022-10-29T06:05:52.122Z,1014.47
2022-10-29T06:06:52.222Z,1014.51
2022-10-29T06:07:52.087Z,1014.56
2022-10-29T06:08:52.078Z,1014.54
2022-10-29T06:09:52.073Z,1014.50
2022-10-29T06:10:52.057Z,1014.50
2022-10-29T06:11:52.070Z,1014.51
2022-10-29T06:12:52.037Z,1014.42
2022-10-29T06:13:52.031Z,1014.42
2022-10-29T06:14:52.013Z,1014.39
2022-10-29T06:15:51.994Z,1014.37
2022-10-29T06:16:52.004Z,1014.40
2022-10-29T06:17:51.971Z,1014.40
2022-10-29T06:18:51.961Z,1014.37
2022-10-29T06:19:51.957Z,1014.36
2022-10-29T06:20:51.957Z,1014.33
2022-10-29T06:21:54.155Z,1014.37
2022-10-29T06:22:51.917Z,1014.37
2022-10-29T06:23:51.911Z,1014.38
2022-10-29T06:24:51.899Z,1014.36
2022-10-29T06:25:51.893Z,1014.38
2022-10-29T06:26:51.889Z,1014.33
2022-10-29T06:27:51.868Z,1014.37
2022-10-29T06:28:51.853Z,1014.32
2022-10-29T06:29:51.848Z,1014.27
2022-10-29T06:30:51.823Z,1014.26
2022-10-29T06:31:51.838Z,1014.25
2022-10-29T06:32:51.816Z,1014.13
2022-10-29T06:33:51.804Z,1014.11
2022-10-29T06:34:51.782Z,1014.03
2022-10-29T06:35:51.782Z,1014.00
2022-10-29T06:36:51.802Z,1014.02
2022-10-29T06:37:51.753Z,1013.97
2022-10-29T06:38:51.740Z,1013.98
2022-10-29T06:39:51.733Z,1013.99
2022-10-29T06:40:51.739Z,1013.99
2022-10-29T06:41:51.718Z,1013.93
2022-10-29T06:42:51.704Z,1013.93
2022-10-29T06:43:51.691Z,1013.90
2022-10-29T06:44:51.670Z,1013.90
2022-10-29T06:45:51.669Z,1013.93
2022-10-29T06:46:51.658Z,1014.01
2022-10-29T06:47:51.648Z,1014.06
2022-10-29T06:48:51.624Z,1014.19
2022-10-29T06:49:51.612Z,1014.25
2022-10-29T06:50:51.613Z,1014.32
2022-10-29T06:51:51.627Z,1014.35
2022-10-29T06:52:51.606Z,1014.34
2022-10-29T06:53:51.570Z,1014.31
2022-10-29T06:54:51.559Z,1014.36
2022-10-29T06:55:51.556Z,1014.35
2022-10-29T06:56:51.559Z,1014.38
2022-10-29T06:57:51.526Z,1014.44
2022-10-29T06:58:51.514Z,1014.44
2022-10-29T06:59:51.504Z,1014.52
2022-10-29T07:00:51.743Z,1014.52
2022-10-29T07:01:51.582Z,1014.57
2022-10-29T07:02:51.474Z,1014.57
2022-10-29T07:03:51.465Z,1014.58
2022-10-29T07:04:51.454Z,1014.61
2022-10-29T07:05:51.433Z,1014.59
2022-10-29T07:06:51.443Z,1014.54
2022-10-29T07:07:51.415Z,1014.53
2022-10-29T07:08:51.424Z,1014.51
2022-10-29T07:09:51.396Z,1014.47
2022-10-29T07:10:51.396Z,1014.48
2022-10-29T07:11:51.391Z,1014.43
2022-10-29T07:12:51.365Z,1014.43
2022-10-29T07:13:51.356Z,1014.43
2022-10-29T07:14:51.336Z,1014.44
2022-10-29T07:15:51.325Z,1014.41
2022-10-29T07:16:51.335Z,1014.46
2022-10-29T07:17:51.310Z,1014.50
2022-10-29T07:18:51.302Z,1014.51
2022-10-29T07:19:51.282Z,1014.52
2022-10-29T07:20:51.277Z,1014.51
2022-10-29T07:21:51.280Z,1014.52
2022-10-29T07:22:51.246Z,1014.54
2022-10-29T07:23:51.242Z,1014.51
2022-10-29T07:24:52.318Z,1014.48
2022-10-29T07:25:51.213Z,1014.49
2022-10-29T07:26:51.213Z,1014.56
2022-10-29T07:27:51.312Z,1014.62
2022-10-29T07:28:51.177Z,1014.67
2022-10-29T07:29:51.173Z,1014.67
2022-10-29T07:30:51.170Z,1014.72
2022-10-29T07:31:51.181Z,1014.74
2022-10-29T07:32:51.140Z,1014.75
2022-10-29T07:33:51.127Z,1014.71
2022-10-29T07:34:51.114Z,1014.66
2022-10-29T07:35:51.101Z,1014.64
2022-10-29T07:36:51.101Z,1014.67
2022-10-29T07:37:51.080Z,1014.64
2022-10-29T07:38:51.079Z,1014.65
2022-10-29T07:39:51.061Z,1014.65
2022-10-29T07:40:51.075Z,1014.71
2022-10-29T07:41:52.178Z,1014.71
2022-10-29T07:42:51.039Z,1014.73
2022-10-29T07:43:51.034Z,1014.75
2022-10-29T07:44:51.002Z,1014.78
2022-10-29T07:45:50.990Z,1014.72
2022-10-29T07:46:51.000Z,1014.70
2022-10-29T07:47:50.977Z,1014.71
2022-10-29T07:48:50.961Z,1014.76
2022-10-29T07:49:50.953Z,1014.70
2022-10-29T07:50:50.934Z,1014.65
2022-10-29T07:51:50.950Z,1014.66
2022-10-29T07:52:50.918Z,1014.65
2022-10-29T07:53:50.909Z,1014.61
2022-10-29T07:54:50.895Z,1014.61
2022-10-29T07:55:50.891Z,1014.63
2022-10-29T07:56:50.899Z,1014.60
2022-10-29T07:57:50.854Z,1014.62
2022-10-29T07:58:50.850Z,1014.60
2022-10-29T07:59:50.833Z,1014.56
2022-10-29T08:00:51.031Z,1014.55
2022-10-29T08:01:50.917Z,1014.55
2022-10-29T08:02:50.804Z,1014.53
2022-10-29T08:03:50.798Z,1014.44
2022-10-29T08:04:50.777Z,1014.46
2022-10-29T08:05:56.210Z,1014.44
2022-10-29T08:06:51.769Z,1014.47
2022-10-29T08:07:50.755Z,1014.47
2022-10-29T08:08:50.739Z,1014.49
2022-10-29T08:09:50.720Z,1014.49
2022-10-29T08:10:50.718Z,1014.52
2022-10-29T08:11:50.734Z,1014.51
2022-10-29T08:12:50.713Z,1014.50
2022-10-29T08:13:50.681Z,1014.51
2022-10-29T08:14:50.661Z,1014.47
2022-10-29T08:15:50.655Z,1014.43
2022-10-29T08:16:50.664Z,1014.44
2022-10-29T08:17:50.635Z,1014.51
2022-10-29T08:18:50.633Z,1014.47
2022-10-29T08:19:50.611Z,1014.46
2022-10-29T08:20:50.622Z,1014.47
2022-10-29T08:21:50.603Z,1014.48
2022-10-29T08:22:50.580Z,1014.49
2022-10-29T08:23:50.557Z,1014.52
2022-10-29T08:24:50.546Z,1014.52
2022-10-29T08:25:50.544Z,1014.51
2022-10-29T08:26:50.545Z,1014.51
2022-10-29T08:27:50.559Z,1014.49
2022-10-29T08:28:50.521Z,1014.46
2022-10-29T08:29:50.488Z,1014.49
2022-10-29T08:30:50.485Z,1014.43
2022-10-29T08:31:50.479Z,1014.42
2022-10-29T08:32:50.472Z,1014.40
2022-10-29T08:33:50.446Z,1014.37
2022-10-29T08:34:50.453Z,1014.37
2022-10-29T08:35:51.176Z,1014.34
2022-10-29T08:36:50.421Z,1014.34
2022-10-29T08:37:50.401Z,1014.32
2022-10-29T08:38:50.392Z,1014.33
2022-10-29T08:39:50.395Z,1014.30
2022-10-29T08:40:50.369Z,1014.35
2022-10-29T08:41:50.377Z,1014.38
2022-10-29T08:42:50.346Z,1014.30
2022-10-29T08:43:50.365Z,1014.34
2022-10-29T08:44:50.334Z,1014.32
2022-10-29T08:45:50.310Z,1014.34
2022-10-29T08:46:50.308Z,1014.33
2022-10-29T08:47:50.280Z,1014.33
2022-10-29T08:48:50.275Z,1014.33
2022-10-29T08:49:50.264Z,1014.29
2022-10-29T08:50:50.249Z,1014.33
2022-10-29T08:51:50.258Z,1014.35
2022-10-29T08:52:58.739Z,1014.35
2022-10-29T08:54:10.302Z,1014.37
2022-10-29T08:54:51.207Z,1014.38
2022-10-29T08:55:50.187Z,1014.41
2022-10-29T08:56:50.207Z,1014.40
2022-10-29T08:57:50.361Z,1014.44
2022-10-29T08:58:50.166Z,1014.44
2022-10-29T08:59:50.141Z,1014.39
2022-10-29T09:00:50.199Z,1014.42
2022-10-29T09:01:50.271Z,1014.31
2022-10-29T09:02:50.113Z,1014.36
2022-10-29T09:03:50.110Z,1014.35
2022-10-29T09:04:50.086Z,1014.35
2022-10-29T09:05:50.073Z,1014.29
2022-10-29T09:06:50.089Z,1014.29
2022-10-29T09:07:50.048Z,1014.27
2022-10-29T09:08:50.046Z,1014.27
2022-10-29T09:09:50.034Z,1014.28
2022-10-29T09:10:50.024Z,1014.24
2022-10-29T09:11:50.021Z,1014.24
2022-10-29T09:12:49.994Z,1014.21
2022-10-29T09:13:49.995Z,1014.20
2022-10-29T09:14:49.972Z,1014.17
2022-10-29T09:15:53.454Z,1014.14
2022-10-29T09:16:50.992Z,1014.13
2022-10-29T09:17:49.947Z,1014.14
2022-10-29T09:18:49.932Z,1014.15
2022-10-29T09:19:49.914Z,1014.12
2022-10-29T09:20:49.905Z,1014.13
2022-10-29T09:21:49.913Z,1014.10
2022-10-29T09:22:49.887Z,1014.13
2022-10-29T09:23:49.873Z,1014.19
2022-10-29T09:24:49.865Z,1014.22
2022-10-29T09:25:49.849Z,1014.18
2022-10-29T09:26:49.853Z,1014.19
2022-10-29T09:27:49.824Z,1014.19
2022-10-29T09:28:49.821Z,1014.18
2022-10-29T09:29:49.803Z,1014.20
2022-10-29T09:30:49.791Z,1014.17
2022-10-29T09:31:49.803Z,1014.21
2022-10-29T09:33:49.756Z,1014.23
2022-10-29T09:34:49.760Z,1014.21
2022-10-29T09:35:49.738Z,1014.23
2022-10-29T09:36:49.735Z,1014.17
2022-10-29T09:37:49.730Z,1014.20
2022-10-29T09:38:49.702Z,1014.23
2022-10-29T09:39:49.688Z,1014.19
2022-10-29T09:40:49.704Z,1014.17
2022-10-29T09:41:49.681Z,1014.13
2022-10-29T09:42:49.669Z,1014.19
2022-10-29T09:43:49.646Z,1014.16
2022-10-29T09:44:49.654Z,1014.16
2022-10-29T09:45:49.621Z,1014.12
2022-10-29T09:46:49.629Z,1014.11
2022-10-29T09:47:49.594Z,1014.10
2022-10-29T09:48:49.609Z,1014.11
2022-10-29T09:49:49.577Z,1014.08
2022-10-29T09:50:49.571Z,1014.09
2022-10-29T09:51:49.574Z,1014.09
2022-10-29T09:52:49.547Z,1014.09
2022-10-29T09:53:49.540Z,1014.13
2022-10-29T09:54:49.528Z,1014.13
2022-10-29T09:55:49.516Z,1014.10
2022-10-29T09:56:55.702Z,1014.12
2022-10-29T09:57:50.488Z,1014.11
2022-10-29T09:58:49.475Z,1014.10
2022-10-29T09:59:49.461Z,1014.07
2022-10-29T10:00:49.465Z,1014.06
2022-10-29T10:01:49.535Z,1014.06
2022-10-29T10:02:49.531Z,1014.02
2022-10-29T10:03:49.487Z,1014.01
2022-10-29T10:04:49.433Z,1013.99
2022-10-29T10:05:49.402Z,1013.98
2022-10-29T10:06:49.412Z,1014.05
2022-10-29T10:07:49.379Z,1014.01
2022-10-29T10:08:49.371Z,1014.02
2022-10-29T10:09:49.350Z,1014.02
2022-10-29T10:10:49.338Z,1013.99
2022-10-29T10:11:49.350Z,1014.02
2022-10-29T10:12:49.322Z,1014.02
2022-10-29T10:13:49.311Z,1014.03
2022-10-29T10:14:49.293Z,1014.04
2022-10-29T10:15:49.283Z,1014.04
2022-10-29T10:16:49.286Z,1014.04
2022-10-29T10:17:49.274Z,1014.06
2022-10-29T10:18:49.258Z,1014.06
2022-10-29T10:19:49.243Z,1014.06
2022-10-29T10:20:49.253Z,1014.05
2022-10-29T10:21:49.239Z,1014.09
2022-10-29T10:22:49.203Z,1014.07
2022-10-29T10:23:49.196Z,1014.03
2022-10-29T10:24:49.179Z,1014.09
2022-10-29T10:25:49.193Z,1014.08
2022-10-29T10:26:49.180Z,1014.09
2022-10-29T10:27:49.158Z,1014.16
2022-10-29T10:28:49.135Z,1014.14
2022-10-29T10:29:49.121Z,1014.13
2022-10-29T10:30:49.122Z,1014.07
2022-10-29T10:31:49.114Z,1014.09
2022-10-29T10:32:49.098Z,1014.05
2022-10-29T10:33:49.078Z,1014.06
2022-10-29T10:34:49.074Z,1014.03
2022-10-29T10:35:49.067Z,1014.07
2022-10-29T10:36:49.077Z,1014.02
2022-10-29T10:37:49.038Z,1014.01
2022-10-29T10:38:49.022Z,1013.91
2022-10-29T10:39:49.009Z,1013.88
2022-10-29T10:40:49.100Z,1013.87
2022-10-29T10:41:49.010Z,1013.83
2022-10-29T10:42:49.023Z,1013.84
2022-10-29T10:43:48.966Z,1013.82
2022-10-29T10:44:48.962Z,1013.83
2022-10-29T10:45:49.164Z,1013.84
2022-10-29T10:46:48.951Z,1013.86
2022-10-29T10:47:48.958Z,1013.83
2022-10-29T10:48:48.911Z,1013.80
2022-10-29T10:49:48.906Z,1013.78
2022-10-29T10:50:48.887Z,1013.73
2022-10-29T10:51:48.891Z,1013.74
2022-10-29T10:52:48.892Z,1013.73
2022-10-29T10:53:48.855Z,1013.70
2022-10-29T10:54:48.963Z,1013.70
2022-10-29T10:55:48.845Z,1013.72
2022-10-29T10:56:48.834Z,1013.72
2022-10-29T10:57:48.812Z,1013.73
2022-10-29T10:58:48.802Z,1013.71
2022-10-29T10:59:48.784Z,1013.72
2022-10-29T11:00:48.849Z,1013.69
2022-10-29T11:01:48.964Z,1013.74
2022-10-29T11:02:48.773Z,1013.72
2022-10-29T11:03:48.741Z,1013.69
2022-10-29T11:04:48.739Z,1013.67
2022-10-29T11:05:48.726Z,1013.66
2022-10-29T11:06:48.735Z,1013.66
2022-10-29T11:07:48.697Z,1013.67
2022-10-29T11:08:48.708Z,1013.64
2022-10-29T11:09:48.687Z,1013.70
2022-10-29T11:10:48.664Z,1013.66
2022-10-29T11:11:48.795Z,1013.64
2022-10-29T11:12:48.645Z,1013.66
2022-10-29T11:13:48.636Z,1013.63
2022-10-29T11:14:48.625Z,1013.66
2022-10-29T11:15:48.605Z,1013.63
2022-10-29T11:16:48.610Z,1013.65
2022-10-29T11:17:52.994Z,1013.65
2022-10-29T11:18:49.596Z,1013.65
2022-10-29T11:19:48.559Z,1013.67
2022-10-29T11:20:48.554Z,1013.68
2022-10-29T11:21:48.561Z,1013.69
2022-10-29T11:22:48.533Z,1013.65
2022-10-29T11:23:48.525Z,1013.69
2022-10-29T11:24:48.528Z,1013.67
2022-10-29T11:25:48.491Z,1013.68
2022-10-29T11:26:48.705Z,1013.65
2022-10-29T11:27:48.488Z,1013.62
2022-10-29T11:28:48.473Z,1013.64
2022-10-29T11:29:50.019Z,1013.67
2022-10-29T11:30:55.254Z,1013.71
2022-10-29T11:31:48.516Z,1013.66
2022-10-29T11:32:48.413Z,1013.63
2022-10-29T11:33:48.408Z,1013.62
2022-10-29T11:34:48.397Z,1013.63
2022-10-29T11:35:48.393Z,1013.64
2022-10-29T11:36:48.389Z,1013.63
2022-10-29T11:37:48.355Z,1013.58
2022-10-29T11:38:48.353Z,1013.56
2022-10-29T11:39:48.333Z,1013.52
2022-10-29T11:40:48.349Z,1013.52
2022-10-29T11:41:48.337Z,1013.56
2022-10-29T11:42:48.319Z,1013.53
2022-10-29T11:43:48.295Z,1013.51
2022-10-29T11:44:48.287Z,1013.49
2022-10-29T11:45:48.264Z,1013.46
2022-10-29T11:46:48.271Z,1013.48
2022-10-29T11:47:48.249Z,1013.46
2022-10-29T11:48:48.241Z,1013.47
2022-10-29T11:49:48.222Z,1013.46
2022-10-29T11:50:48.227Z,1013.41
2022-10-29T11:51:48.222Z,1013.42
2022-10-29T11:52:48.187Z,1013.38
2022-10-29T11:53:48.175Z,1013.40
2022-10-29T11:54:48.174Z,1013.42
2022-10-29T11:55:49.802Z,1013.37
2022-10-29T11:56:48.201Z,1013.38
2022-10-29T11:57:48.138Z,1013.37
2022-10-29T11:58:48.130Z,1013.33
2022-10-29T11:59:48.119Z,1013.33
2022-10-29T12:00:48.106Z,1013.35
2022-10-29T12:01:48.131Z,1013.38
2022-10-29T12:02:48.083Z,1013.35
2022-10-29T12:03:48.143Z,1013.40
2022-10-29T12:04:48.069Z,1013.37
2022-10-29T12:05:48.071Z,1013.36
2022-10-29T12:06:48.062Z,1013.32
2022-10-29T12:07:48.030Z,1013.35
2022-10-29T12:08:48.017Z,1013.36
2022-10-29T12:09:48.004Z,1013.35
2022-10-29T12:10:47.995Z,1013.35
2022-10-29T12:11:47.993Z,1013.33
2022-10-29T12:12:48.019Z,1013.36
2022-10-29T12:13:47.959Z,1013.37